Time;durP1;ratioP1;P1;durP2;ratioP2;P2;SDS_P1;SDS_P2;PMS_P1;PMS_P2;Temp;Humidity;BMP_temperature;BMP_pressure;BME280_temperature;BME280_humidity;BME280_pressure;Samples;Min_cycle;Max_cycle;Signal;HPM_P1;HPM_P2
2022/03/31 00:00:44;;;;;;;17.65;12.10;;;;;;;7.34;68.26;99530.44;1760427;79;21085;-54
2022/03/31 00:03:16;;;;;;;22.70;12.30;;;;;;;7.30;68.34;99535.09;1752436;80;21603;-54
2022/03/31 00:05:44;;;;;;;18.62;13.10;;;;;;;7.27;68.35;99538.43;1781421;78;21015;-53
2022/03/31 00:08:13;;;;;;;20.85;13.03;;;;;;;7.23;68.38;99536.54;1772819;79;21017;-54
2022/03/31 00:10:52;;;;;;;17.45;10.95;;;;;;;7.18;68.44;99534.77;1774258;80;21545;-55
2022/03/31 00:13:22;;;;;;;16.75;10.63;;;;;;;7.18;68.60;99536.08;1774236;80;21066;-53
2022/03/31 00:15:51;;;;;;;19.48;11.97;;;;;;;7.23;68.65;99537.84;1781375;79;21065;-55
2022/03/31 00:18:18;;;;;;;18.12;12.55;;;;;;;7.29;68.53;99527.36;1763766;80;21054;-54
2022/03/31 00:20:45;;;;;;;16.45;11.90;;;;;;;7.32;68.57;99538.89;1774871;80;21138;-53
2022/03/31 00:23:11;;;;;;;19.17;12.45;;;;;;;7.33;68.57;99536.61;1770490;80;21972;-54
2022/03/31 00:25:40;;;;;;;19.00;12.58;;;;;;;7.34;68.56;99529.13;1773876;79;21055;-54
2022/03/31 00:28:06;;;;;;;16.87;12.13;;;;;;;7.33;68.55;99523.52;1774575;80;21002;-55
2022/03/31 00:30:35;;;;;;;18.42;10.98;;;;;;;7.32;68.52;99529.73;1774839;79;21553;-53
2022/03/31 00:33:02;;;;;;;16.40;10.88;;;;;;;7.32;68.62;99527.12;1772356;80;21038;-54
2022/03/31 00:35:30;;;;;;;15.28;11.10;;;;;;;7.31;68.64;99531.98;1770405;79;21256;-54
2022/03/31 00:37:57;;;;;;;16.45;11.15;;;;;;;7.30;68.50;99526.41;1773146;80;21125;-54
2022/03/31 00:40:25;;;;;;;16.93;10.80;;;;;;;7.31;68.40;99534.12;1774315;79;21097;-53
2022/03/31 00:42:57;;;;;;;17.52;11.57;;;;;;;7.34;68.58;99529.95;1775216;79;21019;-54
2022/03/31 00:45:28;;;;;;;17.92;11.12;;;;;;;7.40;68.47;99537.31;1774318;79;21065;-53
2022/03/31 00:47:56;;;;;;;20.32;11.90;;;;;;;7.40;68.37;99541.73;1773785;80;21124;-53
2022/03/31 00:50:22;;;;;;;17.55;10.93;;;;;;;7.37;68.57;99524.96;1769729;78;21131;-53
2022/03/31 00:52:49;;;;;;;18.32;12.00;;;;;;;7.35;68.53;99521.64;1795320;78;21061;-53
2022/03/31 00:55:18;;;;;;;15.03;10.20;;;;;;;7.32;68.66;99516.16;1796346;78;21045;-53
2022/03/31 00:57:47;;;;;;;16.42;11.03;;;;;;;7.32;68.66;99507.00;1793461;78;21549;-53
2022/03/31 01:00:16;;;;;;;20.85;11.55;;;;;;;7.31;68.77;99509.25;1803526;78;21047;-53
2022/03/31 01:02:44;;;;;;;17.55;10.95;;;;;;;7.30;68.75;99507.61;1795906;78;21039;-53
2022/03/31 01:05:12;;;;;;;16.77;10.68;;;;;;;7.27;68.75;99498.70;1799889;77;22040;-54
2022/03/31 01:07:40;;;;;;;16.97;9.98;;;;;;;7.27;68.66;99488.23;1800030;78;21557;-54
2022/03/31 01:10:08;;;;;;;16.20;9.78;;;;;;;7.31;68.56;99487.50;1793378;78;21117;-53
2022/03/31 01:12:36;;;;;;;15.15;10.13;;;;;;;7.34;68.52;99504.27;1799244;78;21215;-53
2022/03/31 01:15:17;;;;;;;19.15;11.45;;;;;;;7.38;68.66;99508.28;1805428;78;21049;-53
2022/03/31 01:17:46;;;;;;;16.07;11.00;;;;;;;7.39;68.67;99509.47;1797746;78;21577;-54
2022/03/31 01:20:21;;;;;;;17.17;10.88;;;;;;;7.40;68.76;99526.03;1809409;78;21494;-54
2022/03/31 01:22:50;;;;;;;16.27;11.03;;;;;;;7.36;68.85;99506.27;1779380;80;21082;-54
2022/03/31 01:25:17;;;;;;;14.63;10.85;;;;;;;7.36;69.04;99495.80;1772789;78;21098;-54
2022/03/31 01:27:45;;;;;;;20.68;11.03;;;;;;;7.36;68.99;99490.57;1798255;78;21101;-54
2022/03/31 01:30:21;;;;;;;17.17;11.65;;;;;;;7.33;69.02;99496.05;1773156;78;21085;-54
2022/03/31 01:32:49;;;;;;;17.65;10.58;;;;;;;7.33;69.04;99490.81;1791036;80;20991;-54
2022/03/31 01:35:15;;;;;;;16.67;10.35;;;;;;;7.33;68.98;99486.44;1773964;79;21153;-54
2022/03/31 01:37:43;;;;;;;17.75;10.48;;;;;;;7.41;68.98;99498.42;1775243;79;21118;-54
2022/03/31 01:40:10;;;;;;;16.55;10.70;;;;;;;7.48;68.85;99506.61;1776366;79;21526;-54
2022/03/31 01:42:38;;;;;;;14.30;9.58;;;;;;;7.51;68.74;99511.57;1782745;79;21066;-54
2022/03/31 01:45:07;;;;;;;16.45;10.95;;;;;;;7.50;68.74;99512.55;1763977;79;21081;-55
2022/03/31 01:47:35;;;;;;;14.78;10.08;;;;;;;7.43;68.92;99510.91;1772604;79;21561;-54
2022/03/31 01:50:03;;;;;;;16.10;10.78;;;;;;;7.42;68.92;99518.39;1770536;80;21128;-54
2022/03/31 01:52:31;;;;;;;17.10;11.60;;;;;;;7.39;68.92;99512.09;1777127;80;21022;-54
2022/03/31 01:54:58;;;;;;;16.45;10.82;;;;;;;7.38;69.17;99495.20;1763088;79;21616;-54
2022/03/31 01:57:24;;;;;;;17.73;10.32;;;;;;;7.41;69.08;99485.80;1800376;78;21089;-53
2022/03/31 01:59:51;;;;;;;15.13;9.38;;;;;;;7.42;68.87;99475.69;1791336;79;21537;-54
2022/03/31 02:02:18;;;;;;;17.50;11.12;;;;;;;7.42;68.88;99472.59;1775871;79;22031;-54
2022/03/31 02:04:45;;;;;;;15.35;10.38;;;;;;;7.39;68.98;99469.39;1758785;80;21089;-54
2022/03/31 02:07:12;;;;;;;18.35;10.95;;;;;;;7.35;69.20;99448.36;1757745;80;21057;-54
2022/03/31 02:09:39;;;;;;;17.20;11.88;;;;;;;7.34;69.37;99440.97;1754949;80;21479;-54
2022/03/31 02:12:07;;;;;;;17.05;10.98;;;;;;;7.34;69.41;99437.53;1781439;78;21023;-54
2022/03/31 02:16:55;;;;;;;14.93;10.75;;;;;;;7.33;69.40;99425.39;1804868;79;22648;-54
2022/03/31 02:19:23;;;;;;;15.95;11.38;;;;;;;7.20;69.42;99426.41;1776339;80;21065;-54
2022/03/31 02:21:51;;;;;;;15.83;10.53;;;;;;;7.17;69.48;99421.41;1762528;79;21111;-54
2022/03/31 02:24:19;;;;;;;16.40;11.40;;;;;;;7.15;69.52;99423.33;1759690;80;20998;-54
2022/03/31 02:26:47;;;;;;;18.77;11.75;;;;;;;7.12;69.78;99413.11;1774280;79;21596;-54
2022/03/31 02:29:15;;;;;;;21.30;13.38;;;;;;;7.07;69.94;99407.42;1774482;79;21288;-54
2022/03/31 02:31:42;;;;;;;18.12;12.55;;;;;;;7.00;70.21;99404.47;1775578;79;21506;-54
2022/03/31 02:34:11;;;;;;;18.25;12.25;;;;;;;6.94;70.40;99402.34;1776834;79;20986;-54
2022/03/31 02:36:43;;;;;;;17.82;12.05;;;;;;;6.90;70.66;99405.34;1773476;80;21526;-54
2022/03/31 02:39:10;;;;;;;15.78;11.57;;;;;;;6.87;70.79;99405.92;1775385;80;21482;-54
2022/03/31 02:41:38;;;;;;;19.90;11.93;;;;;;;6.91;70.91;99416.14;1772629;79;21337;-54
2022/03/31 02:44:06;;;;;;;16.12;10.35;;;;;;;7.01;70.73;99418.38;1776688;80;21057;-54
2022/03/31 02:46:33;;;;;;;17.07;11.88;;;;;;;7.09;70.68;99418.58;1770923;79;21984;-54
2022/03/31 02:49:00;;;;;;;15.78;10.72;;;;;;;7.18;70.66;99414.41;1774454;79;21066;-54
2022/03/31 02:51:26;;;;;;;15.45;10.78;;;;;;;7.27;70.64;99411.52;1775229;79;20983;-54
2022/03/31 02:56:39;;;;;;;19.05;12.40;;;;;;;7.37;70.52;99409.32;1773362;79;21052;-54
2022/03/31 02:59:08;;;;;;;15.98;11.05;;;;;;;7.39;70.32;99413.13;1779620;79;21105;-54
2022/03/31 03:01:35;;;;;;;16.15;11.35;;;;;;;7.38;70.31;99409.69;1769374;79;21047;-54
2022/03/31 03:04:02;;;;;;;18.07;11.70;;;;;;;7.41;70.42;99406.82;1771178;80;21034;-55
2022/03/31 03:06:29;;;;;;;16.27;10.90;;;;;;;7.39;70.31;99396.93;1777653;79;21054;-54
2022/03/31 03:08:55;;;;;;;18.48;10.75;;;;;;;7.41;70.25;99400.28;1769236;79;21108;-55
2022/03/31 03:11:22;;;;;;;14.45;10.82;;;;;;;7.47;70.09;99402.85;1769665;79;21570;-54
2022/03/31 03:13:50;;;;;;;13.25;8.98;;;;;;;7.52;69.90;99394.62;1769869;79;21719;-54
2022/03/31 03:16:17;;;;;;;14.65;9.80;;;;;;;7.57;69.90;99391.97;1764388;80;21067;-54
2022/03/31 03:18:45;;;;;;;16.75;10.95;;;;;;;7.63;69.83;99386.23;1764419;80;21108;-54
2022/03/31 03:21:13;;;;;;;18.52;11.00;;;;;;;7.67;69.80;99387.28;1761845;80;21157;-55
2022/03/31 03:23:41;;;;;;;17.57;11.80;;;;;;;7.66;69.72;99387.74;1721481;83;20997;-54
2022/03/31 03:26:07;;;;;;;17.20;12.20;;;;;;;7.65;69.62;99383.48;1693209;84;21082;-54
2022/03/31 03:28:37;;;;;;;18.35;10.78;;;;;;;7.64;69.66;99376.58;1755461;81;21111;-54
2022/03/31 03:31:05;;;;;;;20.97;12.07;;;;;;;7.63;69.88;99375.76;1761088;80;21059;-54
2022/03/31 03:33:32;;;;;;;17.32;10.40;;;;;;;7.65;69.81;99372.16;1761465;80;21055;-54
2022/03/31 03:35:59;;;;;;;16.23;11.10;;;;;;;7.65;69.70;99374.78;1755313;80;21206;-54
2022/03/31 03:38:26;;;;;;;16.57;11.08;;;;;;;7.67;69.44;99368.95;1761050;80;21511;-54
2022/03/31 03:40:54;;;;;;;17.73;11.03;;;;;;;7.71;69.51;99370.34;1756345;81;21106;-54
2022/03/31 03:43:20;;;;;;;17.37;11.12;;;;;;;7.77;69.66;99368.53;1744650;81;21118;-54
2022/03/31 03:45:47;;;;;;;17.75;11.53;;;;;;;7.78;69.65;99364.93;1752374;80;21047;-54
2022/03/31 03:48:14;;;;;;;17.40;11.25;;;;;;;7.80;69.60;99357.77;1756525;81;21141;-54
2022/03/31 03:50:40;;;;;;;18.12;11.18;;;;;;;7.78;69.51;99351.38;1755044;81;21002;-54
2022/03/31 03:53:07;;;;;;;17.30;11.65;;;;;;;7.73;69.45;99335.23;1759237;81;21035;-55
2022/03/31 03:55:35;;;;;;;17.00;11.57;;;;;;;7.70;69.54;99347.27;1760738;80;21067;-54
2022/03/31 03:58:02;;;;;;;16.97;12.10;;;;;;;7.65;69.51;99336.81;1752364;80;21090;-54
2022/03/31 04:00:30;;;;;;;14.98;10.55;;;;;;;7.61;69.54;99329.21;1755199;81;21069;-55
2022/03/31 04:02:57;;;;;;;18.48;10.65;;;;;;;7.66;69.43;99329.32;1749873;80;21054;-54
2022/03/31 04:05:24;;;;;;;14.68;9.28;;;;;;;7.67;69.48;99327.06;1767834;81;21475;-54
2022/03/31 04:07:51;;;;;;;17.82;10.70;;;;;;;7.72;69.60;99328.81;1755948;80;21090;-54
2022/03/31 04:10:18;;;;;;;17.48;12.15;;;;;;;7.78;69.67;99328.27;1765608;80;21066;-54
2022/03/31 04:12:46;;;;;;;20.32;11.10;;;;;;;7.80;69.49;99325.03;1759777;80;21771;-54
2022/03/31 04:15:16;;;;;;;17.77;12.43;;;;;;;7.81;69.38;99322.28;1759385;80;21008;-54
2022/03/31 04:17:43;;;;;;;18.82;12.23;;;;;;;7.80;69.45;99317.17;1755091;80;21027;-54
2022/03/31 04:20:11;;;;;;;21.80;11.68;;;;;;;7.80;69.40;99310.62;1751013;80;21020;-54
2022/03/31 04:22:38;;;;;;;17.35;11.12;;;;;;;7.75;69.37;99297.95;1759170;80;20995;-55
2022/03/31 04:25:08;;;;;;;15.00;9.70;;;;;;;7.72;69.39;99289.53;1768256;80;21102;-54
2022/03/31 04:27:37;;;;;;;18.35;11.35;;;;;;;7.71;69.31;99285.24;1746501;81;21098;-54
2022/03/31 04:30:07;;;;;;;14.68;10.25;;;;;;;7.72;69.41;99277.75;1758483;81;21083;-54
2022/03/31 04:32:36;;;;;;;17.32;11.50;;;;;;;7.74;69.45;99277.13;1761158;80;21004;-54
2022/03/31 04:35:03;;;;;;;19.00;12.58;;;;;;;7.79;69.67;99275.77;1759140;80;20988;-54
2022/03/31 04:37:30;;;;;;;16.77;11.73;;;;;;;7.86;69.64;99268.70;1754709;80;21333;-55
2022/03/31 04:39:57;;;;;;;17.57;12.23;;;;;;;7.87;69.77;99273.80;1767574;80;21261;-54
2022/03/31 04:42:25;;;;;;;16.50;11.55;;;;;;;7.89;69.68;99268.44;1758906;80;21534;-54
2022/03/31 04:44:52;;;;;;;16.97;12.15;;;;;;;7.87;69.69;99264.64;1768630;80;21047;-54
2022/03/31 04:47:19;;;;;;;18.73;11.88;;;;;;;7.87;69.70;99265.09;1766338;80;21051;-55
2022/03/31 04:49:46;;;;;;;17.92;11.78;;;;;;;7.87;69.72;99255.93;1767814;80;21226;-54
2022/03/31 04:52:13;;;;;;;18.73;11.83;;;;;;;7.85;69.75;99258.71;1757052;80;21344;-55
2022/03/31 04:54:43;;;;;;;19.07;10.70;;;;;;;7.86;69.70;99255.11;1762987;80;21070;-54
2022/03/31 04:57:14;;;;;;;17.20;10.90;;;;;;;7.93;69.56;99257.53;1755949;80;21511;-55
2022/03/31 04:59:41;;;;;;;16.27;10.23;;;;;;;7.96;69.50;99254.66;1754586;81;21349;-55
2022/03/31 05:02:09;;;;;;;17.07;12.53;;;;;;;8.04;69.60;99247.45;1752059;80;21135;-54
2022/03/31 05:04:36;;;;;;;16.50;10.58;;;;;;;8.12;69.57;99252.00;1739355;81;21004;-54
2022/03/31 05:07:04;;;;;;;18.45;11.50;;;;;;;8.14;69.51;99245.67;1754198;80;21043;-55
2022/03/31 05:09:32;;;;;;;17.65;11.68;;;;;;;8.18;69.40;99256.70;1758113;80;21062;-55
2022/03/31 05:11:58;;;;;;;17.32;11.10;;;;;;;8.14;69.24;99250.91;1755707;80;21110;-54
2022/03/31 05:14:25;;;;;;;18.82;11.22;;;;;;;8.13;69.16;99251.05;1754521;80;21112;-54
2022/03/31 05:16:53;;;;;;;19.57;12.40;;;;;;;8.10;69.18;99247.37;1749121;80;21546;-56
2022/03/31 05:19:20;;;;;;;15.63;10.35;;;;;;;8.09;69.23;99245.25;1757849;80;21038;-55
2022/03/31 05:21:47;;;;;;;15.32;10.23;;;;;;;8.16;69.14;99237.68;1749133;80;21040;-54
2022/03/31 05:24:14;;;;;;;17.05;10.72;;;;;;;8.20;69.05;99219.40;1766041;80;21018;-54
2022/03/31 05:26:42;;;;;;;18.17;11.10;;;;;;;8.23;69.17;99213.89;1755225;80;21054;-54
2022/03/31 05:29:09;;;;;;;15.88;11.12;;;;;;;8.26;69.44;99210.19;1771427;80;20987;-54
2022/03/31 05:31:36;;;;;;;20.17;11.83;;;;;;;8.29;69.40;99223.84;1772246;80;21058;-55
2022/03/31 05:34:03;;;;;;;15.98;10.72;;;;;;;8.29;69.22;99223.84;1773306;80;21134;-55
2022/03/31 05:36:30;;;;;;;17.27;10.85;;;;;;;8.26;69.05;99235.90;1753990;80;21086;-54
2022/03/31 05:38:57;;;;;;;15.32;10.03;;;;;;;8.23;69.16;99238.79;1768000;80;21126;-55
2022/03/31 05:41:24;;;;;;;14.83;9.83;;;;;;;8.25;69.08;99242.09;1753611;80;21000;-54
2022/03/31 05:43:51;;;;;;;17.90;10.78;;;;;;;8.26;69.08;99239.83;1760843;80;21054;-55
2022/03/31 05:46:17;;;;;;;16.62;10.55;;;;;;;8.30;69.41;99246.44;1762744;80;21119;-55
2022/03/31 05:48:44;;;;;;;15.68;10.95;;;;;;;8.31;69.43;99255.97;1769850;80;21031;-54
2022/03/31 05:51:12;;;;;;;15.60;10.95;;;;;;;8.34;69.47;99274.55;1771613;80;21411;-54
2022/03/31 05:53:39;;;;;;;16.07;10.40;;;;;;;8.34;69.52;99258.33;1760614;80;21098;-55
2022/03/31 05:56:07;;;;;;;16.57;10.50;;;;;;;8.37;69.58;99254.59;1768023;80;21004;-54
2022/03/31 05:58:35;;;;;;;17.40;9.83;;;;;;;8.40;69.36;99243.02;1765288;80;21518;-55
2022/03/31 06:01:02;;;;;;;16.62;10.15;;;;;;;8.40;69.29;99237.77;1727916;82;21098;-54
2022/03/31 06:03:29;;;;;;;16.45;10.40;;;;;;;8.45;69.24;99239.53;1708155;83;21150;-54
2022/03/31 06:05:57;;;;;;;18.60;10.65;;;;;;;8.49;69.24;99235.66;1709461;83;21135;-54
2022/03/31 06:08:23;;;;;;;13.48;9.00;;;;;;;8.54;69.23;99221.68;1698318;82;21653;-54
2022/03/31 06:10:50;;;;;;;14.73;10.45;;;;;;;8.57;69.28;99212.20;1692262;83;21130;-54
2022/03/31 06:13:17;;;;;;;18.05;9.73;;;;;;;8.64;69.27;99225.59;1709660;83;21074;-54
2022/03/31 06:15:43;;;;;;;15.85;10.58;;;;;;;8.66;69.32;99216.63;1713235;82;21166;-55
2022/03/31 06:18:10;;;;;;;18.27;10.00;;;;;;;8.69;69.08;99220.29;1710032;82;21106;-54
2022/03/31 06:20:39;;;;;;;14.10;8.28;;;;;;;8.71;69.10;99221.47;1708576;82;21039;-53
2022/03/31 06:23:06;;;;;;;12.05;8.80;;;;;;;8.75;68.92;99214.96;1763726;80;21154;-54
2022/03/31 06:25:33;;;;;;;15.40;8.20;;;;;;;8.86;68.77;99216.59;1764344;81;21043;-54
2022/03/31 06:28:01;;;;;;;13.38;9.50;;;;;;;8.95;68.81;99211.83;1759658;80;21780;-54
2022/03/31 06:30:28;;;;;;;16.32;10.58;;;;;;;9.06;68.75;99209.52;1759264;80;21054;-54
2022/03/31 06:32:55;;;;;;;15.00;9.65;;;;;;;9.13;68.48;99208.45;1760485;81;21055;-53
2022/03/31 06:35:22;;;;;;;14.20;9.50;;;;;;;9.17;68.30;99217.72;1763635;80;21583;-56
2022/03/31 06:37:49;;;;;;;17.90;10.43;;;;;;;9.22;68.12;99222.05;1758881;80;20996;-53
2022/03/31 06:40:17;;;;;;;14.53;10.18;;;;;;;9.27;67.94;99221.96;1760840;81;21103;-54
2022/03/31 06:42:45;;;;;;;13.72;8.78;;;;;;;9.28;67.77;99223.63;1761370;81;21593;-54
2022/03/31 06:45:16;;;;;;;13.32;8.23;;;;;;;9.35;67.71;99227.81;1764763;80;21031;-53
2022/03/31 06:47:43;;;;;;;15.65;9.20;;;;;;;9.45;67.64;99235.17;1756800;80;21085;-53
2022/03/31 06:50:11;;;;;;;20.82;10.05;;;;;;;9.60;67.49;99229.44;1762433;80;21008;-53
2022/03/31 06:52:38;;;;;;;14.60;10.15;;;;;;;9.72;67.28;99219.59;1755992;81;21131;-53
2022/03/31 06:55:07;;;;;;;19.57;10.15;;;;;;;9.82;66.74;99226.44;1757757;80;21302;-53
2022/03/31 06:57:33;;;;;;;16.48;11.00;;;;;;;9.93;66.42;99217.52;1752339;80;21047;-53
2022/03/31 07:00:00;;;;;;;18.40;10.10;;;;;;;10.02;65.92;99214.02;1760596;81;21070;-53
2022/03/31 07:02:27;;;;;;;14.63;10.35;;;;;;;10.08;65.64;99207.33;1754582;80;21067;-54
2022/03/31 07:04:54;;;;;;;16.12;9.73;;;;;;;10.14;65.69;99214.63;1752735;80;22056;-53
2022/03/31 07:07:21;;;;;;;15.68;10.15;;;;;;;10.23;65.38;99208.47;1755291;80;21069;-54
2022/03/31 07:09:49;;;;;;;16.90;9.93;;;;;;;10.29;65.35;99208.37;1754997;81;21490;-53
2022/03/31 07:12:16;;;;;;;14.78;9.33;;;;;;;10.43;65.16;99205.73;1758795;80;21024;-53
2022/03/31 07:14:44;;;;;;;13.18;9.28;;;;;;;10.65;65.02;99202.30;1761636;80;21090;-53
2022/03/31 07:17:12;;;;;;;13.03;9.43;;;;;;;10.87;64.69;99205.75;1764199;80;21223;-55
2022/03/31 07:19:39;;;;;;;14.20;9.35;;;;;;;11.07;64.27;99208.20;1769588;80;21524;-53
2022/03/31 07:22:06;;;;;;;15.60;9.78;;;;;;;11.19;63.88;99203.00;1765674;80;21046;-53
2022/03/31 07:24:33;;;;;;;18.77;10.38;;;;;;;11.31;63.21;99202.24;1766607;80;21126;-53
2022/03/31 07:27:01;;;;;;;15.28;9.10;;;;;;;11.38;62.66;99196.70;1759704;80;21141;-53
2022/03/31 07:29:28;;;;;;;17.50;10.03;;;;;;;11.40;61.65;99196.52;1764553;80;21327;-54
2022/03/31 07:31:55;;;;;;;16.60;10.82;;;;;;;11.29;61.50;99196.31;1759602;80;21061;-53
2022/03/31 07:34:22;;;;;;;19.62;10.43;;;;;;;11.23;61.84;99195.61;1737944;80;21145;-54
2022/03/31 07:36:49;;;;;;;14.73;10.38;;;;;;;11.22;61.92;99201.37;1763455;80;21526;-53
2022/03/31 07:39:17;;;;;;;13.13;9.63;;;;;;;11.23;62.13;99192.50;1765351;80;21042;-53
2022/03/31 07:41:45;;;;;;;15.30;9.08;;;;;;;11.27;62.35;99196.47;1762500;80;21125;-55
2022/03/31 07:44:12;;;;;;;16.25;10.50;;;;;;;11.37;61.91;99198.17;1762761;80;21021;-54
2022/03/31 07:46:39;;;;;;;15.13;10.10;;;;;;;11.43;61.21;99206.27;1740947;80;21145;-53
2022/03/31 07:49:06;;;;;;;17.40;11.63;;;;;;;11.49;61.26;99203.49;1764296;80;21455;-53
2022/03/31 07:51:34;;;;;;;19.87;11.93;;;;;;;11.59;61.21;99193.66;1769831;80;21074;-54
2022/03/31 07:54:02;;;;;;;17.70;11.83;;;;;;;11.63;61.27;99187.57;1744294;80;21187;-54
2022/03/31 07:56:29;;;;;;;19.52;12.25;;;;;;;11.68;60.87;99187.92;1746163;80;21101;-54
2022/03/31 07:58:56;;;;;;;15.72;11.12;;;;;;;11.68;60.46;99175.59;1765360;80;21036;-53
2022/03/31 08:01:23;;;;;;;20.37;12.43;;;;;;;11.67;59.94;99172.61;1755825;80;21114;-54
2022/03/31 08:03:50;;;;;;;18.15;12.85;;;;;;;11.61;59.90;99167.97;1756135;80;21520;-54
2022/03/31 08:06:17;;;;;;;19.48;12.13;;;;;;;11.53;60.00;99170.56;1765716;80;21235;-53
2022/03/31 08:08:44;;;;;;;16.32;11.63;;;;;;;11.46;60.25;99166.92;1743997;80;21034;-54
2022/03/31 08:11:10;;;;;;;19.02;12.35;;;;;;;11.43;60.70;99168.55;1743475;82;21183;-54
2022/03/31 08:13:37;;;;;;;16.55;11.70;;;;;;;11.40;60.85;99159.64;1743623;80;21022;-54
2022/03/31 08:16:05;;;;;;;17.20;12.63;;;;;;;11.38;60.88;99161.15;1745912;80;22198;-54
2022/03/31 08:18:34;;;;;;;15.25;10.58;;;;;;;11.41;60.86;99162.63;1754656;80;21054;-54
2022/03/31 08:21:01;;;;;;;16.93;10.70;;;;;;;11.51;60.82;99162.82;1754875;80;21094;-55
2022/03/31 08:23:30;;;;;;;18.65;12.53;;;;;;;11.61;60.54;99170.60;1753409;80;21027;-54
2022/03/31 08:25:57;;;;;;;17.85;11.95;;;;;;;11.69;60.17;99168.00;1754516;80;21078;-53
2022/03/31 08:28:25;;;;;;;16.23;11.40;;;;;;;11.68;59.88;99162.88;1760354;80;21235;-54
2022/03/31 08:30:52;;;;;;;18.62;12.33;;;;;;;11.67;59.95;99157.30;1753749;80;21099;-54
2022/03/31 08:33:19;;;;;;;20.95;13.20;;;;;;;11.65;60.35;99150.88;1761028;81;21052;-54
2022/03/31 08:35:46;;;;;;;18.00;12.53;;;;;;;11.69;60.46;99153.50;1762431;80;21066;-54
2022/03/31 08:38:13;;;;;;;19.52;13.08;;;;;;;11.78;60.70;99146.44;1754741;80;21602;-54
2022/03/31 08:40:40;;;;;;;17.42;11.80;;;;;;;11.87;60.39;99144.17;1738230;80;21125;-54
2022/03/31 08:43:07;;;;;;;17.40;12.50;;;;;;;11.98;60.24;99143.56;1755486;80;21158;-54
2022/03/31 08:45:38;;;;;;;19.30;13.55;;;;;;;12.06;60.38;99149.66;1768423;81;22054;-54
2022/03/31 08:48:05;;;;;;;20.08;12.28;;;;;;;12.16;60.07;99150.02;1744863;80;21074;-54
2022/03/31 08:50:36;;;;;;;20.00;12.35;;;;;;;12.25;59.52;99150.34;1766368;80;21550;-54
2022/03/31 08:53:03;;;;;;;19.37;12.15;;;;;;;12.30;59.04;99144.58;1740231;80;21321;-54
2022/03/31 08:55:32;;;;;;;16.23;12.30;;;;;;;12.31;58.85;99146.25;1760815;80;21787;-53
2022/03/31 08:57:59;;;;;;;17.82;12.73;;;;;;;12.28;58.95;99147.38;1758141;81;21090;-54
2022/03/31 09:00:26;;;;;;;18.45;12.60;;;;;;;12.32;59.05;99138.14;1756344;80;21074;-53
2022/03/31 09:03:02;;;;;;;22.60;12.63;;;;;;;12.41;58.75;99133.20;1759127;80;21069;-54
2022/03/31 09:05:49;;;;;;;22.40;13.95;;;;;;;12.48;58.51;99136.02;1753480;81;20987;-54
2022/03/31 09:08:16;;;;;;;18.42;13.50;;;;;;;12.52;58.37;99141.27;1749686;81;21112;-54
2022/03/31 09:10:50;;;;;;;18.77;12.95;;;;;;;12.55;58.18;99138.30;1761858;80;21092;-54
2022/03/31 09:13:23;;;;;;;18.02;13.48;;;;;;;12.59;58.40;99143.59;1751435;80;21046;-54
2022/03/31 09:16:06;;;;;;;20.70;13.65;;;;;;;12.63;58.45;99136.17;1755061;80;21086;-54
2022/03/31 09:18:34;;;;;;;18.25;13.18;;;;;;;12.73;58.49;99136.81;1762714;80;21082;-53
2022/03/31 09:21:03;;;;;;;21.25;13.03;;;;;;;12.85;58.02;99135.16;1760377;80;21094;-54
2022/03/31 09:23:43;;;;;;;18.45;13.20;;;;;;;12.91;57.60;99130.50;1758208;80;21065;-54
2022/03/31 09:26:12;;;;;;;18.40;12.90;;;;;;;12.95;57.45;99126.55;1758789;80;21072;-54
2022/03/31 09:28:41;;;;;;;18.95;14.07;;;;;;;13.01;57.25;99124.53;1765158;80;21041;-54
2022/03/31 09:31:12;;;;;;;20.77;13.00;;;;;;;13.07;57.19;99125.18;1763164;80;21071;-54
2022/03/31 09:33:48;;;;;;;18.77;12.85;;;;;;;13.17;57.30;99132.91;1755517;80;22113;-54
2022/03/31 09:36:17;;;;;;;18.30;13.25;;;;;;;13.33;57.25;99134.69;1759617;80;21044;-54
2022/03/31 09:38:53;;;;;;;22.45;14.00;;;;;;;13.49;56.88;99132.49;1761944;80;21041;-55
2022/03/31 09:41:31;;;;;;;20.35;13.05;;;;;;;13.59;56.16;99127.00;1757147;80;21068;-54
2022/03/31 09:44:00;;;;;;;18.92;13.13;;;;;;;13.63;55.79;99121.17;1756947;80;21184;-54
2022/03/31 09:46:38;;;;;;;16.20;11.97;;;;;;;13.69;56.12;99124.45;1757334;80;21825;-54
2022/03/31 09:49:23;;;;;;;18.57;12.70;;;;;;;13.80;56.03;99123.25;1760972;80;20931;-54
2022/03/31 09:51:54;;;;;;;20.62;13.28;;;;;;;13.91;55.60;99114.90;1766924;80;21047;-54
2022/03/31 09:54:23;;;;;;;18.40;13.03;;;;;;;13.96;55.04;99116.20;1755073;80;21119;-54
2022/03/31 09:56:51;;;;;;;17.65;12.37;;;;;;;13.94;54.88;99119.84;1760813;80;21090;-54
2022/03/31 09:59:18;;;;;;;17.73;13.05;;;;;;;13.93;55.23;99115.54;1759018;80;21148;-54
2022/03/31 10:01:45;;;;;;;16.85;13.13;;;;;;;14.00;55.26;99112.20;1759693;80;21054;-53
2022/03/31 10:04:14;;;;;;;18.07;12.80;;;;;;;14.10;54.95;99114.95;1758741;80;21113;-55
2022/03/31 10:06:42;;;;;;;18.85;13.53;;;;;;;14.21;54.82;99108.92;1753067;80;21016;-53
2022/03/31 10:09:10;;;;;;;18.87;13.65;;;;;;;14.30;54.55;99106.00;1760094;80;21565;-53
2022/03/31 10:11:42;;;;;;;17.23;12.65;;;;;;;14.42;54.44;99101.62;1766334;80;21516;-53
2022/03/31 10:14:52;;;;;;;19.55;12.90;;;;;;;14.51;53.87;99101.87;1762938;80;21049;-54
2022/03/31 10:17:28;;;;;;;19.27;12.85;;;;;;;14.53;53.72;99102.52;1755563;80;21051;-52
2022/03/31 10:20:12;;;;;;;15.75;12.82;;;;;;;14.56;54.04;99106.61;1765227;80;21023;-52
2022/03/31 10:25:36;;;;;;;17.73;12.47;;;;;;;14.75;53.72;99090.76;1757829;80;21843;-52
2022/03/31 10:28:14;;;;;;;16.62;12.20;;;;;;;14.89;53.57;99085.14;1755809;80;21109;-52
2022/03/31 10:30:59;;;;;;;19.37;11.60;;;;;;;15.01;53.41;99088.97;1757220;80;21573;-53
2022/03/31 10:33:38;;;;;;;19.57;13.18;;;;;;;15.15;53.01;99083.36;1757135;80;21061;-52
2022/03/31 10:36:16;;;;;;;16.70;13.20;;;;;;;15.22;52.77;99086.40;1759522;80;21007;-52
2022/03/31 10:38:58;;;;;;;17.52;12.30;;;;;;;15.32;52.38;99078.16;1753746;80;21302;-52
2022/03/31 10:41:33;;;;;;;16.52;12.47;;;;;;;15.34;51.75;99074.82;1769454;80;21043;-52
2022/03/31 10:44:16;;;;;;;17.10;12.37;;;;;;;15.34;51.92;99078.80;1759460;80;21510;-53
2022/03/31 10:46:45;;;;;;;16.42;11.05;;;;;;;15.43;52.30;99071.55;1754015;80;21082;-52
2022/03/31 10:49:19;;;;;;;16.23;12.25;;;;;;;15.59;52.53;99064.70;1761731;80;21094;-52
2022/03/31 10:51:45;;;;;;;18.50;11.30;;;;;;;15.79;52.21;99064.94;1763213;80;21135;-52
2022/03/31 10:54:26;;;;;;;14.63;11.35;;;;;;;15.95;51.89;99063.89;1760632;80;21004;-53
2022/03/31 10:57:12;;;;;;;16.80;12.73;;;;;;;16.11;51.58;99058.80;1760489;80;21550;-53
2022/03/31 10:59:44;;;;;;;16.85;11.50;;;;;;;16.31;50.96;99061.63;1759028;80;21103;-53
2022/03/31 11:02:21;;;;;;;16.30;11.73;;;;;;;16.49;50.02;99062.97;1764350;80;21062;-54
2022/03/31 11:04:56;;;;;;;16.85;11.20;;;;;;;16.57;49.32;99052.72;1760922;80;22228;-53
2022/03/31 11:07:25;;;;;;;15.50;10.85;;;;;;;16.64;48.97;99050.91;1758541;80;21044;-52
2022/03/31 11:10:05;;;;;;;19.45;12.10;;;;;;;16.72;49.05;99050.77;1764593;80;20977;-53
2022/03/31 11:12:36;;;;;;;17.10;12.45;;;;;;;16.84;48.67;99054.53;1752867;80;21062;-52
2022/03/31 11:15:18;;;;;;;15.85;10.93;;;;;;;16.98;48.43;99059.92;1750999;80;21022;-52
2022/03/31 11:17:45;;;;;;;15.45;10.85;;;;;;;17.08;47.98;99048.45;1754309;80;21224;-53
2022/03/31 11:20:16;;;;;;;14.30;10.60;;;;;;;17.12;46.44;99049.68;1737618;80;21098;-53
2022/03/31 11:22:51;;;;;;;15.28;11.33;;;;;;;17.09;46.53;99052.73;1764618;80;21051;-52
2022/03/31 11:25:19;;;;;;;14.25;10.28;;;;;;;17.12;46.88;99062.97;1756269;80;21576;-53
2022/03/31 11:27:47;;;;;;;19.37;10.80;;;;;;;17.29;47.32;99063.96;1759718;80;21118;-52
2022/03/31 11:30:18;;;;;;;18.23;11.48;;;;;;;17.48;46.99;99064.52;1761805;80;21142;-53
2022/03/31 11:32:48;;;;;;;15.88;10.78;;;;;;;17.68;45.45;99061.10;1754804;80;21044;-52
2022/03/31 11:35:20;;;;;;;14.07;10.28;;;;;;;17.87;45.21;99068.34;1749811;80;21047;-53
2022/03/31 11:37:54;;;;;;;15.25;10.35;;;;;;;18.04;43.61;99075.92;1745005;80;21133;-52